sensor_id;sensor_type;location;lat;lon;timestamp;pressure;altitude;pressure_sealevel;temperature;humidity
66668;BME280;57205;51.438;-2.006;2023-03-03T00:00:28;102089.88;;;1.45;100.00
66668;BME280;57205;51.438;-2.006;2023-03-03T00:02:54;102089.38;;;1.41;100.00
66668;BME280;57205;51.438;-2.006;2023-03-03T00:05:21;102085.09;;;1.40;100.00
66668;BME280;57205;51.438;-2.006;2023-03-03T00:07:47;102093.69;;;1.42;100.00
66668;BME280;57205;51.438;-2.006;2023-03-03T00:10:13;102091.53;;;1.46;100.00
66668;BME280;57205;51.438;-2.006;2023-03-03T00:12:47;102088.72;;;1.47;100.00
66668;BME280;57205;51.438;-2.006;2023-03-03T00:15:14;102087.25;;;1.45;100.00
66668;BME280;57205;51.438;-2.006;2023-03-03T00:17:40;102098.59;;;1.45;100.00
66668;BME280;57205;51.438;-2.006;2023-03-03T00:20:51;102086.91;;;1.48;100.00
66668;BME280;57205;51.438;-2.006;2023-03-03T00:22:50;102094.81;;;1.48;100.00
66668;BME280;57205;51.438;-2.006;2023-03-03T00:25:31;102093.66;;;1.50;100.00
66668;BME280;57205;51.438;-2.006;2023-03-03T00:28:05;102100.41;;;1.53;100.00
66668;BME280;57205;51.438;-2.006;2023-03-03T00:30:31;102096.13;;;1.52;100.00
66668;BME280;57205;51.438;-2.006;2023-03-03T00:32:57;102092.97;;;1.56;100.00
66668;BME280;57205;51.438;-2.006;2023-03-03T00:35:29;102088.81;;;1.62;100.00
66668;BME280;57205;51.438;-2.006;2023-03-03T00:37:58;102088.63;;;1.71;100.00
66668;BME280;57205;51.438;-2.006;2023-03-03T00:40:26;102096.19;;;1.82;100.00
66668;BME280;57205;51.438;-2.006;2023-03-03T00:42:55;102095.81;;;1.93;100.00
66668;BME280;57205;51.438;-2.006;2023-03-03T00:45:33;102088.50;;;2.04;100.00
66668;BME280;57205;51.438;-2.006;2023-03-03T00:48:15;102092.56;;;2.14;100.00
66668;BME280;57205;51.438;-2.006;2023-03-03T00:50:43;102087.63;;;2.19;100.00
66668;BME280;57205;51.438;-2.006;2023-03-03T00:53:10;102088.88;;;2.23;100.00
66668;BME280;57205;51.438;-2.006;2023-03-03T00:55:35;102089.03;;;2.30;100.00
66668;BME280;57205;51.438;-2.006;2023-03-03T00:58:01;102091.31;;;2.33;100.00
66668;BME280;57205;51.438;-2.006;2023-03-03T01:00:27;102093.78;;;2.34;100.00
66668;BME280;57205;51.438;-2.006;2023-03-03T01:02:52;102086.97;;;2.40;100.00
66668;BME280;57205;51.438;-2.006;2023-03-03T01:05:18;102096.56;;;2.41;100.00
66668;BME280;57205;51.438;-2.006;2023-03-03T01:07:43;102096.38;;;2.42;100.00
66668;BME280;57205;51.438;-2.006;2023-03-03T01:10:09;102103.94;;;2.45;100.00
66668;BME280;57205;51.438;-2.006;2023-03-03T01:12:34;102098.66;;;2.45;100.00
66668;BME280;57205;51.438;-2.006;2023-03-03T01:15:00;102097.69;;;2.46;100.00
66668;BME280;57205;51.438;-2.006;2023-03-03T01:17:25;102100.31;;;2.46;100.00
66668;BME280;57205;51.438;-2.006;2023-03-03T01:19:51;102105.25;;;2.49;100.00
66668;BME280;57205;51.438;-2.006;2023-03-03T01:22:19;102097.16;;;2.51;100.00
66668;BME280;57205;51.438;-2.006;2023-03-03T01:24:44;102108.34;;;2.53;100.00
66668;BME280;57205;51.438;-2.006;2023-03-03T01:27:09;102111.19;;;2.51;100.00
66668;BME280;57205;51.438;-2.006;2023-03-03T01:29:35;102116.63;;;2.50;100.00
66668;BME280;57205;51.438;-2.006;2023-03-03T01:32:00;102110.38;;;2.51;100.00
66668;BME280;57205;51.438;-2.006;2023-03-03T01:34:25;102117.75;;;2.55;100.00
66668;BME280;57205;51.438;-2.006;2023-03-03T01:36:51;102122.69;;;2.58;100.00
66668;BME280;57205;51.438;-2.006;2023-03-03T01:39:16;102121.16;;;2.64;100.00
66668;BME280;57205;51.438;-2.006;2023-03-03T01:41:41;102120.28;;;2.71;100.00
66668;BME280;57205;51.438;-2.006;2023-03-03T01:44:10;102123.44;;;2.75;100.00
66668;BME280;57205;51.438;-2.006;2023-03-03T01:46:40;102125.53;;;2.79;100.00
66668;BME280;57205;51.438;-2.006;2023-03-03T01:49:11;102124.81;;;2.85;100.00
66668;BME280;57205;51.438;-2.006;2023-03-03T01:52:38;102127.28;;;2.87;100.00
66668;BME280;57205;51.438;-2.006;2023-03-03T01:54:35;102132.69;;;2.93;100.00
66668;BME280;57205;51.438;-2.006;2023-03-03T01:57:02;102133.16;;;2.97;100.00
66668;BME280;57205;51.438;-2.006;2023-03-03T01:59:30;102137.25;;;2.99;100.00
66668;BME280;57205;51.438;-2.006;2023-03-03T02:01:57;102140.53;;;3.02;100.00
66668;BME280;57205;51.438;-2.006;2023-03-03T02:04:23;102126.63;;;3.08;100.00
66668;BME280;57205;51.438;-2.006;2023-03-03T02:06:51;102134.66;;;3.14;100.00
66668;BME280;57205;51.438;-2.006;2023-03-03T02:12:00;102140.16;;;3.27;100.00
66668;BME280;57205;51.438;-2.006;2023-03-03T02:14:27;102133.88;;;3.28;100.00
66668;BME280;57205;51.438;-2.006;2023-03-03T02:16:52;102135.16;;;3.32;100.00
66668;BME280;57205;51.438;-2.006;2023-03-03T02:22:01;102128.69;;;3.35;100.00
66668;BME280;57205;51.438;-2.006;2023-03-03T02:24:29;102130.16;;;3.37;100.00
66668;BME280;57205;51.438;-2.006;2023-03-03T02:26:57;102125.06;;;3.36;100.00
66668;BME280;57205;51.438;-2.006;2023-03-03T02:29:22;102129.97;;;3.39;100.00
66668;BME280;57205;51.438;-2.006;2023-03-03T02:31:48;102126.97;;;3.42;100.00
66668;BME280;57205;51.438;-2.006;2023-03-03T02:34:13;102130.63;;;3.41;100.00
66668;BME280;57205;51.438;-2.006;2023-03-03T02:36:38;102130.72;;;3.47;100.00
66668;BME280;57205;51.438;-2.006;2023-03-03T02:41:31;102130.88;;;3.46;100.00
66668;BME280;57205;51.438;-2.006;2023-03-03T02:44:01;102129.25;;;3.45;100.00
66668;BME280;57205;51.438;-2.006;2023-03-03T02:46:28;102130.88;;;3.46;100.00
66668;BME280;57205;51.438;-2.006;2023-03-03T02:48:56;102126.25;;;3.48;100.00
66668;BME280;57205;51.438;-2.006;2023-03-03T02:51:21;102125.44;;;3.47;100.00
66668;BME280;57205;51.438;-2.006;2023-03-03T02:53:46;102120.16;;;3.47;100.00
66668;BME280;57205;51.438;-2.006;2023-03-03T02:56:12;102125.91;;;3.51;100.00
66668;BME280;57205;51.438;-2.006;2023-03-03T02:58:37;102127.91;;;3.49;100.00
66668;BME280;57205;51.438;-2.006;2023-03-03T03:01:03;102131.19;;;3.51;100.00
66668;BME280;57205;51.438;-2.006;2023-03-03T03:03:29;102124.25;;;3.50;100.00
66668;BME280;57205;51.438;-2.006;2023-03-03T03:05:54;102125.06;;;3.50;100.00
66668;BME280;57205;51.438;-2.006;2023-03-03T03:08:19;102123.25;;;3.51;100.00
66668;BME280;57205;51.438;-2.006;2023-03-03T03:10:45;102130.81;;;3.54;100.00
66668;BME280;57205;51.438;-2.006;2023-03-03T03:13:10;102125.34;;;3.55;100.00
66668;BME280;57205;51.438;-2.006;2023-03-03T03:15:35;102125.97;;;3.57;100.00
66668;BME280;57205;51.438;-2.006;2023-03-03T03:18:01;102120.69;;;3.57;100.00
66668;BME280;57205;51.438;-2.006;2023-03-03T03:20:26;102128.81;;;3.56;100.00
66668;BME280;57205;51.438;-2.006;2023-03-03T03:22:51;102130.09;;;3.60;100.00
66668;BME280;57205;51.438;-2.006;2023-03-03T03:25:17;102132.75;;;3.60;100.00
66668;BME280;57205;51.438;-2.006;2023-03-03T03:27:42;102121.16;;;3.61;100.00
66668;BME280;57205;51.438;-2.006;2023-03-03T03:30:07;102116.69;;;3.61;100.00
66668;BME280;57205;51.438;-2.006;2023-03-03T03:32:33;102119.13;;;3.63;100.00
66668;BME280;57205;51.438;-2.006;2023-03-03T03:34:58;102119.78;;;3.65;100.00
66668;BME280;57205;51.438;-2.006;2023-03-03T03:37:23;102113.50;;;3.66;100.00
66668;BME280;57205;51.438;-2.006;2023-03-03T03:39:48;102117.13;;;3.65;100.00
66668;BME280;57205;51.438;-2.006;2023-03-03T03:42:14;102119.97;;;3.63;100.00
66668;BME280;57205;51.438;-2.006;2023-03-03T03:44:39;102107.56;;;3.64;100.00
66668;BME280;57205;51.438;-2.006;2023-03-03T03:47:04;102112.47;;;3.67;100.00
66668;BME280;57205;51.438;-2.006;2023-03-03T03:49:30;102114.75;;;3.70;100.00
66668;BME280;57205;51.438;-2.006;2023-03-03T03:51:55;102112.94;;;3.70;100.00
66668;BME280;57205;51.438;-2.006;2023-03-03T03:54:20;102117.25;;;3.71;100.00
66668;BME280;57205;51.438;-2.006;2023-03-03T03:56:45;102119.06;;;3.71;100.00
66668;BME280;57205;51.438;-2.006;2023-03-03T03:59:11;102116.59;;;3.69;100.00
66668;BME280;57205;51.438;-2.006;2023-03-03T04:01:36;102115.41;;;3.72;100.00
66668;BME280;57205;51.438;-2.006;2023-03-03T04:04:01;102121.72;;;3.71;100.00
66668;BME280;57205;51.438;-2.006;2023-03-03T04:06:28;102112.75;;;3.72;100.00
66668;BME280;57205;51.438;-2.006;2023-03-03T04:08:53;102118.69;;;3.74;100.00
66668;BME280;57205;51.438;-2.006;2023-03-03T04:11:18;102115.25;;;3.73;100.00
66668;BME280;57205;51.438;-2.006;2023-03-03T04:13:44;102119.06;;;3.71;100.00
66668;BME280;57205;51.438;-2.006;2023-03-03T04:16:09;102116.88;;;3.74;100.00
66668;BME280;57205;51.438;-2.006;2023-03-03T04:18:34;102115.06;;;3.75;100.00
66668;BME280;57205;51.438;-2.006;2023-03-03T04:20:59;102119.69;;;3.73;100.00
66668;BME280;57205;51.438;-2.006;2023-03-03T04:23:25;102110.41;;;3.77;100.00
66668;BME280;57205;51.438;-2.006;2023-03-03T04:25:50;102113.19;;;3.75;100.00
66668;BME280;57205;51.438;-2.006;2023-03-03T04:28:16;102110.28;;;3.70;100.00
66668;BME280;57205;51.438;-2.006;2023-03-03T04:30:41;102109.75;;;3.75;100.00
66668;BME280;57205;51.438;-2.006;2023-03-03T04:33:06;102108.09;;;3.74;100.00
66668;BME280;57205;51.438;-2.006;2023-03-03T04:35:31;102107.09;;;3.75;100.00
66668;BME280;57205;51.438;-2.006;2023-03-03T04:37:57;102104.28;;;3.76;100.00
66668;BME280;57205;51.438;-2.006;2023-03-03T04:40:22;102116.03;;;3.74;100.00
66668;BME280;57205;51.438;-2.006;2023-03-03T04:42:48;102109.94;;;3.73;100.00
66668;BME280;57205;51.438;-2.006;2023-03-03T04:45:13;102110.75;;;3.74;100.00
66668;BME280;57205;51.438;-2.006;2023-03-03T04:47:38;102117.06;;;3.73;100.00
66668;BME280;57205;51.438;-2.006;2023-03-03T04:50:04;102113.19;;;3.75;100.00
66668;BME280;57205;51.438;-2.006;2023-03-03T04:52:29;102112.59;;;3.73;100.00
66668;BME280;57205;51.438;-2.006;2023-03-03T04:54:55;102114.41;;;3.73;100.00
66668;BME280;57205;51.438;-2.006;2023-03-03T04:57:20;102111.56;;;3.74;100.00
66668;BME280;57205;51.438;-2.006;2023-03-03T04:59:45;102102.16;;;3.72;100.00
66668;BME280;57205;51.438;-2.006;2023-03-03T05:02:11;102112.22;;;3.76;100.00
66668;BME280;57205;51.438;-2.006;2023-03-03T05:04:37;102107.09;;;3.75;100.00
66668;BME280;57205;51.438;-2.006;2023-03-03T05:07:02;102110.75;;;3.74;100.00
66668;BME280;57205;51.438;-2.006;2023-03-03T05:09:27;102114.41;;;3.73;100.00
66668;BME280;57205;51.438;-2.006;2023-03-03T05:11:53;102122.69;;;3.70;100.00
66668;BME280;57205;51.438;-2.006;2023-03-03T05:14:18;102119.69;;;3.73;100.00
66668;BME280;57205;51.438;-2.006;2023-03-03T05:16:44;102116.03;;;3.74;100.00
66668;BME280;57205;51.438;-2.006;2023-03-03T05:19:09;102120.53;;;3.73;100.00
66668;BME280;57205;51.438;-2.006;2023-03-03T05:21:34;102128.28;;;3.75;100.00
66668;BME280;57205;51.438;-2.006;2023-03-03T05:24:00;102124.63;;;3.76;100.00
66668;BME280;57205;51.438;-2.006;2023-03-03T05:26:25;102122.63;;;3.78;100.00
66668;BME280;57205;51.438;-2.006;2023-03-03T05:28:50;102130.38;;;3.79;100.00
66668;BME280;57205;51.438;-2.006;2023-03-03T05:31:15;102125.91;;;3.80;100.00
66668;BME280;57205;51.438;-2.006;2023-03-03T05:33:41;102122.81;;;3.76;100.00
66668;BME280;57205;51.438;-2.006;2023-03-03T05:36:06;102131.56;;;3.77;100.00
66668;BME280;57205;51.438;-2.006;2023-03-03T05:38:32;102134.56;;;3.74;100.00
66668;BME280;57205;51.438;-2.006;2023-03-03T05:40:57;102128.28;;;3.75;100.00
66668;BME280;57205;51.438;-2.006;2023-03-03T05:43:22;102123.97;;;3.74;100.00
66668;BME280;57205;51.438;-2.006;2023-03-03T05:45:52;102131.13;;;3.73;100.00
66668;BME280;57205;51.438;-2.006;2023-03-03T05:48:18;102124.53;;;3.69;100.00
66668;BME280;57205;51.438;-2.006;2023-03-03T05:50:44;102129.00;;;3.69;100.00
66668;BME280;57205;51.438;-2.006;2023-03-03T05:53:09;102133.47;;;3.68;100.00
66668;BME280;57205;51.438;-2.006;2023-03-03T05:55:34;102122.06;;;3.68;100.00
66668;BME280;57205;51.438;-2.006;2023-03-03T05:58:00;102123.25;;;3.65;100.00
66668;BME280;57205;51.438;-2.006;2023-03-03T06:00:25;102127.34;;;3.68;100.00
66668;BME280;57205;51.438;-2.006;2023-03-03T06:02:50;102134.28;;;3.69;100.00
66668;BME280;57205;51.438;-2.006;2023-03-03T06:05:16;102126.53;;;3.67;100.00
66668;BME280;57205;51.438;-2.006;2023-03-03T06:07:41;102122.06;;;3.68;100.00
66668;BME280;57205;51.438;-2.006;2023-03-03T06:10:06;102134.28;;;3.69;100.00
66668;BME280;57205;51.438;-2.006;2023-03-03T06:12:32;102128.38;;;3.67;100.00
66668;BME280;57205;51.438;-2.006;2023-03-03T06:14:57;102125.34;;;3.70;100.00
66668;BME280;57205;51.438;-2.006;2023-03-03T06:17:23;102129.38;;;3.66;100.00
66668;BME280;57205;51.438;-2.006;2023-03-03T06:19:48;102130.19;;;3.66;100.00
66668;BME280;57205;51.438;-2.006;2023-03-03T06:22:13;102138.31;;;3.65;100.00
66668;BME280;57205;51.438;-2.006;2023-03-03T06:24:38;102132.81;;;3.66;100.00
66668;BME280;57205;51.438;-2.006;2023-03-03T06:27:07;102144.44;;;3.65;100.00
66668;BME280;57205;51.438;-2.006;2023-03-03T06:29:33;102136.84;;;3.62;100.00
66668;BME280;57205;51.438;-2.006;2023-03-03T06:31:58;102133.00;;;3.65;100.00
66668;BME280;57205;51.438;-2.006;2023-03-03T06:34:25;102144.25;;;3.67;100.00
66668;BME280;57205;51.438;-2.006;2023-03-03T06:36:50;102135.94;;;3.70;100.00
66668;BME280;57205;51.438;-2.006;2023-03-03T06:39:16;102141.78;;;3.65;100.00
66668;BME280;57205;51.438;-2.006;2023-03-03T06:41:41;102129.38;;;3.66;100.00
66668;BME280;57205;51.438;-2.006;2023-03-03T06:44:12;102138.75;;;3.68;100.00
66668;BME280;57205;51.438;-2.006;2023-03-03T06:46:37;102135.47;;;3.66;100.00
66668;BME280;57205;51.438;-2.006;2023-03-03T06:49:02;102133.84;;;3.65;100.00
66668;BME280;57205;51.438;-2.006;2023-03-03T06:51:32;102148.72;;;3.66;100.00
66668;BME280;57205;51.438;-2.006;2023-03-03T06:54:00;102150.56;;;3.66;100.00
66668;BME280;57205;51.438;-2.006;2023-03-03T06:56:26;102161.59;;;3.69;100.00
66668;BME280;57205;51.438;-2.006;2023-03-03T06:58:58;102153.47;;;3.71;100.00
66668;BME280;57205;51.438;-2.006;2023-03-03T07:01:24;102155.09;;;3.72;100.00
66668;BME280;57205;51.438;-2.006;2023-03-03T07:03:49;102153.09;;;3.74;100.00
66668;BME280;57205;51.438;-2.006;2023-03-03T07:06:22;102145.53;;;3.71;100.00
66668;BME280;57205;51.438;-2.006;2023-03-03T07:08:48;102148.63;;;3.74;100.00
66668;BME280;57205;51.438;-2.006;2023-03-03T07:11:15;102154.13;;;3.73;100.00
66668;BME280;57205;51.438;-2.006;2023-03-03T07:13:43;102160.06;;;3.75;100.00
66668;BME280;57205;51.438;-2.006;2023-03-03T07:16:11;102163.78;;;3.80;100.00
66668;BME280;57205;51.438;-2.006;2023-03-03T07:18:47;102159.16;;;3.82;100.00
66668;BME280;57205;51.438;-2.006;2023-03-03T07:23:40;102174.13;;;3.90;100.00
66668;BME280;57205;51.438;-2.006;2023-03-03T07:26:10;102177.75;;;3.89;100.00
66668;BME280;57205;51.438;-2.006;2023-03-03T07:28:36;102180.22;;;3.90;100.00
66668;BME280;57205;51.438;-2.006;2023-03-03T07:31:03;102194.75;;;3.94;100.00
66668;BME280;57205;51.438;-2.006;2023-03-03T07:33:42;102182.53;;;3.93;100.00
66668;BME280;57205;51.438;-2.006;2023-03-03T07:36:19;102186.44;;;3.97;100.00
66668;BME280;57205;51.438;-2.006;2023-03-03T07:38:52;102182.97;;;3.97;100.00
66668;BME280;57205;51.438;-2.006;2023-03-03T07:41:17;102195.19;;;3.98;100.00
66668;BME280;57205;51.438;-2.006;2023-03-03T07:43:59;102197.50;;;4.01;100.00
66668;BME280;57205;51.438;-2.006;2023-03-03T07:48:59;102193.81;;;4.02;100.00
66668;BME280;57205;51.438;-2.006;2023-03-03T07:51:31;102198.28;;;4.02;100.00
66668;BME280;57205;51.438;-2.006;2023-03-03T07:56:44;102193.28;;;4.07;100.00
66668;BME280;57205;51.438;-2.006;2023-03-03T07:59:19;102190.91;;;4.12;100.00
66668;BME280;57205;51.438;-2.006;2023-03-03T08:01:45;102196.84;;;4.14;100.00
66668;BME280;57205;51.438;-2.006;2023-03-03T08:04:18;102204.88;;;4.20;100.00
66668;BME280;57205;51.438;-2.006;2023-03-03T08:06:45;102203.16;;;4.27;100.00
66668;BME280;57205;51.438;-2.006;2023-03-03T08:14:19;102203.78;;;4.44;100.00
66668;BME280;57205;51.438;-2.006;2023-03-03T08:16:49;102212.53;;;4.44;100.00
66668;BME280;57205;51.438;-2.006;2023-03-03T08:19:14;102212.81;;;4.49;100.00
66668;BME280;57205;51.438;-2.006;2023-03-03T08:21:41;102213.72;;;4.56;100.00
66668;BME280;57205;51.438;-2.006;2023-03-03T08:24:06;102212.19;;;4.68;99.61
66668;BME280;57205;51.438;-2.006;2023-03-03T08:26:31;102216.50;;;4.69;98.69
66668;BME280;57205;51.438;-2.006;2023-03-03T08:28:59;102215.50;;;4.70;98.18
66668;BME280;57205;51.438;-2.006;2023-03-03T08:31:25;102228.09;;;4.68;99.13
66668;BME280;57205;51.438;-2.006;2023-03-03T08:33:50;102228.41;;;4.73;99.34
66668;BME280;57205;51.438;-2.006;2023-03-03T08:36:16;102236.78;;;4.77;98.64
66668;BME280;57205;51.438;-2.006;2023-03-03T08:38:41;102237.25;;;4.80;97.91
66668;BME280;57205;51.438;-2.006;2023-03-03T08:41:06;102234.84;;;4.85;98.15
66668;BME280;57205;51.438;-2.006;2023-03-03T08:43:32;102242.25;;;4.90;97.35
66668;BME280;57205;51.438;-2.006;2023-03-03T08:45:58;102241.66;;;4.94;96.65
66668;BME280;57205;51.438;-2.006;2023-03-03T08:48:24;102246.63;;;4.97;96.71
66668;BME280;57205;51.438;-2.006;2023-03-03T08:50:49;102246.63;;;4.97;95.63
66668;BME280;57205;51.438;-2.006;2023-03-03T08:53:15;102244.31;;;4.94;94.74
66668;BME280;57205;51.438;-2.006;2023-03-03T08:55:41;102241.31;;;4.97;94.60
66668;BME280;57205;51.438;-2.006;2023-03-03T08:58:06;102236.69;;;5.06;95.29
66668;BME280;57205;51.438;-2.006;2023-03-03T09:00:32;102242.88;;;5.13;94.92
66668;BME280;57205;51.438;-2.006;2023-03-03T09:02:57;102246.81;;;5.17;94.36
66668;BME280;57205;51.438;-2.006;2023-03-03T09:05:23;102237.59;;;5.13;93.22
66668;BME280;57205;51.438;-2.006;2023-03-03T09:07:48;102242.53;;;5.16;92.82
66668;BME280;57205;51.438;-2.006;2023-03-03T09:10:16;102247.06;;;5.22;92.32
66668;BME280;57205;51.438;-2.006;2023-03-03T09:12:43;102249.84;;;5.14;92.07
66668;BME280;57205;51.438;-2.006;2023-03-03T09:15:14;102255.59;;;5.18;90.30
66668;BME280;57205;51.438;-2.006;2023-03-03T09:17:41;102250.69;;;5.15;91.38
66668;BME280;57205;51.438;-2.006;2023-03-03T09:20:20;102248.41;;;5.12;90.86
66668;BME280;57205;51.438;-2.006;2023-03-03T09:22:47;102258.81;;;5.13;90.68
66668;BME280;57205;51.438;-2.006;2023-03-03T09:25:22;102253.06;;;5.10;91.61
66668;BME280;57205;51.438;-2.006;2023-03-03T09:27:52;102259.19;;;5.10;92.26
66668;BME280;57205;51.438;-2.006;2023-03-03T09:32:50;102264.88;;;5.07;88.92
66668;BME280;57205;51.438;-2.006;2023-03-03T09:35:26;102258.66;;;5.00;89.61
66668;BME280;57205;51.438;-2.006;2023-03-03T09:38:00;102262.09;;;4.94;90.31
66668;BME280;57205;51.438;-2.006;2023-03-03T09:43:06;102264.81;;;5.01;91.51
66668;BME280;57205;51.438;-2.006;2023-03-03T09:51:04;102272.69;;;4.94;91.19
66668;BME280;57205;51.438;-2.006;2023-03-03T09:56:34;102267.94;;;4.89;92.87
66668;BME280;57205;51.438;-2.006;2023-03-03T10:01:39;102270.59;;;4.89;92.34
66668;BME280;57205;51.438;-2.006;2023-03-03T10:07:31;102272.06;;;4.92;92.12
66668;BME280;57205;51.438;-2.006;2023-03-03T10:12:09;102279.38;;;4.90;92.38
66668;BME280;57205;51.438;-2.006;2023-03-03T10:14:49;102275.72;;;4.91;92.72
66668;BME280;57205;51.438;-2.006;2023-03-03T10:19:51;102282.00;;;5.05;90.13
66668;BME280;57205;51.438;-2.006;2023-03-03T10:33:04;102288.34;;;5.25;89.48
66668;BME280;57205;51.438;-2.006;2023-03-03T10:43:02;102299.25;;;5.15;91.49
66668;BME280;57205;51.438;-2.006;2023-03-03T10:50:42;102291.22;;;5.09;92.57
66668;BME280;57205;51.438;-2.006;2023-03-03T10:53:20;102298.44;;;5.15;92.68
66668;BME280;57205;51.438;-2.006;2023-03-03T10:58:30;102290.97;;;5.25;93.49
66668;BME280;57205;51.438;-2.006;2023-03-03T11:06:21;102300.59;;;5.26;92.67
66668;BME280;57205;51.438;-2.006;2023-03-03T11:13:43;102296.53;;;5.30;92.38
66668;BME280;57205;51.438;-2.006;2023-03-03T11:18:55;102311.53;;;5.37;91.98
66668;BME280;57205;51.438;-2.006;2023-03-03T11:23:52;102317.66;;;5.38;91.63
66668;BME280;57205;51.438;-2.006;2023-03-03T11:26:23;102308.50;;;5.40;90.36
66668;BME280;57205;51.438;-2.006;2023-03-03T11:29:14;102314.47;;;5.42;90.46
66668;BME280;57205;51.438;-2.006;2023-03-03T11:36:55;102311.09;;;5.55;91.27
66668;BME280;57205;51.438;-2.006;2023-03-03T11:39:22;102305.84;;;5.61;90.92
66668;BME280;57205;51.438;-2.006;2023-03-03T11:41:57;102315.91;;;5.66;91.75
66668;BME280;57205;51.438;-2.006;2023-03-03T11:44:28;102318.16;;;5.69;90.75
66668;BME280;57205;51.438;-2.006;2023-03-03T11:46:57;102308.41;;;5.76;90.86
66668;BME280;57205;51.438;-2.006;2023-03-03T11:49:42;102325.09;;;5.84;90.28
66668;BME280;57205;51.438;-2.006;2023-03-03T11:57:11;102322.44;;;5.84;89.97
66668;BME280;57205;51.438;-2.006;2023-03-03T12:07:14;102309.41;;;5.89;87.50
66668;BME280;57205;51.438;-2.006;2023-03-03T12:09:51;102316.38;;;5.90;86.41
66668;BME280;57205;51.438;-2.006;2023-03-03T12:12:21;102310.25;;;5.97;86.22
66668;BME280;57205;51.438;-2.006;2023-03-03T12:30:24;102305.41;;;6.00;87.36
66668;BME280;57205;51.438;-2.006;2023-03-03T12:32:56;102295.66;;;6.07;87.03
66668;BME280;57205;51.438;-2.006;2023-03-03T12:35:34;102294.25;;;6.11;86.76
66668;BME280;57205;51.438;-2.006;2023-03-03T12:46:19;102288.16;;;6.17;85.19
66668;BME280;57205;51.438;-2.006;2023-03-03T12:48:47;102288.69;;;6.06;87.72
66668;BME280;57205;51.438;-2.006;2023-03-03T12:56:57;102285.69;;;5.88;91.84
66668;BME280;57205;51.438;-2.006;2023-03-03T13:04:58;102273.59;;;6.13;91.08
66668;BME280;57205;51.438;-2.006;2023-03-03T13:07:30;102276.13;;;6.21;89.68
66668;BME280;57205;51.438;-2.006;2023-03-03T13:15:27;102274.38;;;6.41;87.64
66668;BME280;57205;51.438;-2.006;2023-03-03T13:25:50;102273.19;;;6.44;85.63
66668;BME280;57205;51.438;-2.006;2023-03-03T13:28:20;102259.41;;;6.34;86.88
66668;BME280;57205;51.438;-2.006;2023-03-03T13:30:48;102266.19;;;6.36;86.58
66668;BME280;57205;51.438;-2.006;2023-03-03T13:33:20;102260.88;;;6.36;88.11
66668;BME280;57205;51.438;-2.006;2023-03-03T13:35:52;102266.59;;;6.33;88.53
66668;BME280;57205;51.438;-2.006;2023-03-03T13:38:23;102260.28;;;6.41;88.86
66668;BME280;57205;51.438;-2.006;2023-03-03T13:40:50;102261.50;;;6.38;89.55
66668;BME280;57205;51.438;-2.006;2023-03-03T13:43:21;102263.13;;;6.39;88.63
66668;BME280;57205;51.438;-2.006;2023-03-03T13:50:57;102260.72;;;6.44;83.19
66668;BME280;57205;51.438;-2.006;2023-03-03T13:58:36;102259.06;;;6.43;84.91
66668;BME280;57205;51.438;-2.006;2023-03-03T14:01:16;102264.38;;;6.43;84.85
66668;BME280;57205;51.438;-2.006;2023-03-03T14:06:45;102250.44;;;6.35;86.12
66668;BME280;57205;51.438;-2.006;2023-03-03T14:11:48;102245.16;;;6.41;83.44
66668;BME280;57205;51.438;-2.006;2023-03-03T14:15:02;102252.94;;;6.43;83.79
66668;BME280;57205;51.438;-2.006;2023-03-03T14:19:37;102252.06;;;6.36;83.52
66668;BME280;57205;51.438;-2.006;2023-03-03T14:25:07;102242.97;;;6.17;85.19
66668;BME280;57205;51.438;-2.006;2023-03-03T14:27:34;102236.66;;;6.18;85.59
66668;BME280;57205;51.438;-2.006;2023-03-03T14:32:56;102237.66;;;6.17;86.38
66668;BME280;57205;51.438;-2.006;2023-03-03T14:35:22;102230.94;;;6.21;87.09
66668;BME280;57205;51.438;-2.006;2023-03-03T14:37:49;102230.94;;;6.21;87.24
66668;BME280;57205;51.438;-2.006;2023-03-03T14:40:19;102234.63;;;6.20;87.46
66668;BME280;57205;51.438;-2.006;2023-03-03T14:42:46;102231.97;;;6.20;88.09
66668;BME280;57205;51.438;-2.006;2023-03-03T14:45:20;102224.97;;;6.19;88.59
66668;BME280;57205;51.438;-2.006;2023-03-03T14:47:47;102224.97;;;6.19;88.37
66668;BME280;57205;51.438;-2.006;2023-03-03T14:50:36;102229.03;;;6.15;88.83
66668;BME280;57205;51.438;-2.006;2023-03-03T14:55:37;102215.81;;;6.22;88.57
66668;BME280;57205;51.438;-2.006;2023-03-03T14:58:04;102211.31;;;6.22;88.47
66668;BME280;57205;51.438;-2.006;2023-03-03T15:00:32;102217.28;;;6.24;88.55
66668;BME280;57205;51.438;-2.006;2023-03-03T15:03:00;102202.31;;;6.17;87.41
66668;BME280;57205;51.438;-2.006;2023-03-03T15:05:27;102208.63;;;6.16;87.58
66668;BME280;57205;51.438;-2.006;2023-03-03T15:10:25;102205.50;;;6.06;88.89
66668;BME280;57205;51.438;-2.006;2023-03-03T15:12:51;102205.06;;;6.02;89.13
66668;BME280;57205;51.438;-2.006;2023-03-03T15:15:18;102202.78;;;5.99;89.82
66668;BME280;57205;51.438;-2.006;2023-03-03T15:22:50;102200.38;;;6.04;90.42
66668;BME280;57205;51.438;-2.006;2023-03-03T15:25:25;102191.41;;;6.05;89.36
66668;BME280;57205;51.438;-2.006;2023-03-03T15:27:58;102188.94;;;6.04;89.78
66668;BME280;57205;51.438;-2.006;2023-03-03T15:30:32;102202.03;;;6.05;90.21
66668;BME280;57205;51.438;-2.006;2023-03-03T15:33:06;102193.88;;;6.13;90.45
66668;BME280;57205;51.438;-2.006;2023-03-03T15:38:03;102196.59;;;6.20;89.82
66668;BME280;57205;51.438;-2.006;2023-03-03T15:41:21;102198.00;;;6.16;89.83
66668;BME280;57205;51.438;-2.006;2023-03-03T15:43:38;102184.91;;;6.14;90.15
66668;BME280;57205;51.438;-2.006;2023-03-03T15:46:26;102194.13;;;6.18;89.36
66668;BME280;57205;51.438;-2.006;2023-03-03T15:49:12;102191.81;;;6.09;88.87
66668;BME280;57205;51.438;-2.006;2023-03-03T15:54:29;102186.44;;;5.96;89.47
66668;BME280;57205;51.438;-2.006;2023-03-03T15:56:58;102197.47;;;5.93;89.69
66668;BME280;57205;51.438;-2.006;2023-03-03T15:59:28;102190.06;;;5.88;89.71